Time;durP1;ratioP1;P1;durP2;ratioP2;P2;SDS_P1;SDS_P2;PMS_P1;PMS_P2;Temp;Humidity;BMP_temperature;BMP_pressure;BME280_temperature;BME280_humidity;BME280_pressure;Samples;Min_cycle;Max_cycle;Signal;HPM_P1;HPM_P2
2021/05/09 00:00:51;;;;;;;;;33.25;32.00;;;;;9.03;67.43;101190.69;4934573;29;11731;-75
2021/05/09 00:03:47;;;;;;;;;34.50;33.25;;;;;8.91;67.28;101196.75;4933625;29;11686;-75
2021/05/09 00:06:42;;;;;;;;;23.25;23.25;;;;;8.72;67.68;101182.25;4934233;29;11582;-75
2021/05/09 00:09:38;;;;;;;;;33.00;30.75;;;;;8.89;67.61;101193.47;4934168;29;11689;-75
2021/05/09 00:12:33;;;;;;;;;28.50;26.50;;;;;9.08;67.46;101201.66;4934241;29;11655;-75
2021/05/09 00:15:29;;;;;;;;;23.25;22.25;;;;;8.97;66.82;101220.38;4934907;29;11733;-76
2021/05/09 00:18:26;;;;;;;;;30.75;28.00;;;;;8.86;67.59;101225.25;4934862;29;11645;-75
2021/05/09 00:21:22;;;;;;;;;22.00;20.50;;;;;8.98;67.51;101233.03;4934698;29;11667;-75
2021/05/09 00:24:17;;;;;;;;;21.25;19.25;;;;;8.92;67.60;101231.50;4933183;29;11631;-75
2021/05/09 00:27:13;;;;;;;;;18.50;18.50;;;;;8.94;67.67;101229.25;4934774;29;11603;-76
2021/05/09 00:30:10;;;;;;;;;15.50;14.00;;;;;8.91;67.03;101236.19;4934549;29;11567;-75
2021/05/09 00:33:05;;;;;;;;;12.75;12.75;;;;;8.70;67.41;101242.41;4921603;29;11561;-75
2021/05/09 00:36:01;;;;;;;;;11.50;11.50;;;;;8.92;67.90;101237.00;4915652;29;12544;-75
2021/05/09 00:38:56;;;;;;;;;10.25;9.50;;;;;8.64;67.83;101234.22;4897512;29;11583;-75
2021/05/09 00:42:02;;;;;;;;;11.50;11.50;;;;;8.56;68.46;101240.44;4925795;29;11652;-76
2021/05/09 00:44:58;;;;;;;;;11.00;11.00;;;;;8.77;67.79;101240.06;4915705;29;11601;-76
2021/05/09 00:47:54;;;;;;;;;15.00;13.50;;;;;8.52;68.38;101241.38;4917758;29;11812;-75
2021/05/09 00:50:50;;;;;;;;;12.50;12.50;;;;;8.61;68.09;101240.34;4919201;29;12423;-75
2021/05/09 00:53:46;;;;;;;;;10.50;10.50;;;;;8.56;68.06;101254.22;4919174;29;11680;-75
2021/05/09 00:56:42;;;;;;;;;5.75;5.75;;;;;8.48;68.56;101254.09;4920994;29;11575;-75
2021/05/09 00:59:42;;;;;;;;;7.00;7.00;;;;;8.44;68.24;101259.44;4937954;29;11523;-75
2021/05/09 01:02:40;;;;;;;;;7.75;7.75;;;;;8.60;68.54;101262.72;4918222;29;11525;-75
2021/05/09 01:05:36;;;;;;;;;6.75;6.75;;;;;8.66;68.21;101274.44;4918952;29;11556;-75
2021/05/09 01:08:34;;;;;;;;;7.00;7.00;;;;;8.69;68.66;101269.16;4919058;29;11526;-76
2021/05/09 01:11:30;;;;;;;;;6.00;6.00;;;;;8.58;68.85;101282.31;4923754;29;11546;-75
2021/05/09 01:14:26;;;;;;;;;5.25;5.25;;;;;8.76;68.70;101288.06;4899751;29;11548;-75
2021/05/09 01:17:21;;;;;;;;;3.00;3.00;;;;;8.87;69.50;101293.09;4900012;29;11546;-75
2021/05/09 01:20:17;;;;;;;;;4.25;4.25;;;;;8.94;68.11;101309.22;4919106;29;11549;-75
2021/05/09 01:23:13;;;;;;;;;1.25;1.25;;;;;8.83;68.98;101296.78;4934595;29;11532;-75
2021/05/09 01:26:09;;;;;;;;;3.00;3.00;;;;;8.86;69.16;101296.16;4918472;29;11655;-75
2021/05/09 01:29:05;;;;;;;;;5.25;5.25;;;;;8.62;68.57;101291.63;4918477;29;11649;-74
2021/05/09 01:32:02;;;;;;;;;2.00;2.00;;;;;8.66;68.46;101291.00;4940776;29;11623;-75
2021/05/09 01:34:58;;;;;;;;;2.25;2.25;;;;;8.69;68.23;101287.66;4918173;29;12314;-75
2021/05/09 01:37:54;;;;;;;;;5.00;5.00;;;;;8.75;68.83;101300.22;4918326;29;11531;-75
2021/05/09 01:40:49;;;;;;;;;4.00;4.00;;;;;8.47;68.08;101300.16;4916824;29;11523;-75
2021/05/09 01:43:45;;;;;;;;;5.50;5.50;;;;;8.69;67.97;101296.75;4918667;29;11546;-76
2021/05/09 01:46:40;;;;;;;;;6.75;6.50;;;;;8.51;68.43;101292.09;4918094;29;11595;-75
2021/05/09 01:49:36;;;;;;;;;3.00;3.00;;;;;8.62;68.89;101293.56;4918356;29;11648;-75
2021/05/09 01:52:31;;;;;;;;;5.25;5.25;;;;;8.74;68.62;101304.09;4916957;29;11528;-75
2021/05/09 01:55:27;;;;;;;;;6.00;6.00;;;;;8.68;68.22;101303.38;4918050;29;11556;-75
2021/05/09 01:58:23;;;;;;;;;7.25;7.25;;;;;8.57;67.99;101313.75;4935041;29;11533;-75
2021/05/09 02:01:18;;;;;;;;;6.25;6.00;;;;;8.31;68.35;101318.84;4927221;29;11509;-76
2021/05/09 02:04:14;;;;;;;;;8.00;8.00;;;;;8.49;67.90;101328.22;4917933;29;12217;-75
2021/05/09 02:07:09;;;;;;;;;8.75;8.75;;;;;8.51;67.96;101337.03;4917860;29;11603;-75
2021/05/09 02:10:06;;;;;;;;;5.75;5.75;;;;;8.56;68.51;101331.41;4917823;29;11526;-76
2021/05/09 02:13:01;;;;;;;;;6.25;6.25;;;;;8.70;68.12;101334.22;4917967;29;11567;-75
2021/05/09 02:15:57;;;;;;;;;7.00;7.00;;;;;8.39;67.59;101347.69;4917672;29;12352;-76
2021/05/09 02:18:53;;;;;;;;;6.00;5.00;;;;;8.59;67.87;101332.78;4912017;29;11533;-75
2021/05/09 02:21:48;;;;;;;;;5.75;5.75;;;;;8.51;68.21;101336.19;4920681;29;11481;-74
2021/05/09 02:24:44;;;;;;;;;6.00;6.00;;;;;8.55;67.95;101337.25;4936507;29;11556;-75
2021/05/09 02:27:40;;;;;;;;;1.00;1.00;;;;;8.52;68.42;101338.66;4936463;29;11530;-75
2021/05/09 02:30:36;;;;;;;;;3.50;3.50;;;;;8.30;68.76;101339.28;4936365;29;11508;-76
2021/05/09 02:33:31;;;;;;;;;5.00;5.00;;;;;8.43;68.53;101340.47;4936642;29;11518;-75
2021/05/09 02:36:27;;;;;;;;;4.00;4.00;;;;;8.38;68.64;101337.81;4936333;29;11560;-75
2021/05/09 02:39:23;;;;;;;;;6.50;6.50;;;;;8.55;67.72;101343.56;4936249;29;11537;-75
2021/05/09 02:42:18;;;;;;;;;4.25;4.25;;;;;8.24;68.71;101356.19;4921620;29;11627;-75
2021/05/09 02:45:14;;;;;;;;;4.25;4.25;;;;;8.26;68.44;101362.19;4907267;29;12389;-75
2021/05/09 02:48:10;;;;;;;;;6.00;6.00;;;;;8.14;68.31;101353.59;4907786;29;11580;-75
2021/05/09 02:51:06;;;;;;;;;3.00;3.00;;;;;8.28;68.30;101355.28;4905687;29;11705;-75
2021/05/09 02:54:02;;;;;;;;;2.25;2.25;;;;;8.36;68.07;101367.59;4908932;29;11674;-75
2021/05/09 02:56:57;;;;;;;;;5.75;5.75;;;;;8.13;67.83;101373.97;4907692;29;11546;-75
2021/05/09 02:59:53;;;;;;;;;9.50;9.50;;;;;8.29;67.01;101391.94;4906806;29;11530;-75
2021/05/09 03:02:49;;;;;;;;;7.00;7.00;;;;;8.29;67.11;101394.69;4906087;29;11522;-75
2021/05/09 03:05:44;;;;;;;;;15.50;14.50;;;;;8.56;66.56;101397.59;4917887;29;11546;-75
2021/05/09 03:08:40;;;;;;;;;10.75;10.75;;;;;8.58;67.23;101398.09;4906850;29;11685;-75
2021/05/09 03:11:35;;;;;;;;;10.00;10.00;;;;;8.47;66.74;101402.16;4911790;29;11517;-75
2021/05/09 03:14:31;;;;;;;;;7.00;7.00;;;;;8.45;66.84;101409.91;4903370;29;11518;-75
2021/05/09 03:17:26;;;;;;;;;12.25;11.25;;;;;8.54;66.94;101430.16;4915174;29;11540;-75
2021/05/09 03:20:22;;;;;;;;;13.00;13.00;;;;;8.65;66.90;101436.34;4915909;29;11516;-75
2021/05/09 03:23:19;;;;;;;;;12.75;12.75;;;;;8.76;66.19;101437.00;4934646;29;11673;-75
2021/05/09 03:26:14;;;;;;;;;12.25;11.00;;;;;8.69;65.94;101442.09;4934475;29;11565;-76
2021/05/09 03:29:10;;;;;;;;;14.75;14.50;;;;;8.66;65.61;101459.22;4934607;29;11492;-75
2021/05/09 03:32:06;;;;;;;;;17.00;17.00;;;;;8.73;65.78;101454.13;4934168;29;11471;-75
2021/05/09 03:35:07;;;;;;;;;17.75;17.25;;;;;8.73;65.84;101457.72;4934622;29;11568;-75
2021/05/09 03:38:03;;;;;;;;;23.00;22.25;;;;;8.98;65.60;101464.78;4934444;29;11552;-75
2021/05/09 03:40:58;;;;;;;;;13.75;13.75;;;;;8.82;65.29;101472.50;4921923;29;11573;-76
2021/05/09 03:43:54;;;;;;;;;13.25;12.25;;;;;8.77;65.64;101474.50;4915475;29;11502;-75
2021/05/09 03:46:49;;;;;;;;;10.00;10.00;;;;;8.77;65.18;101472.56;4915451;29;11499;-75
2021/05/09 03:49:45;;;;;;;;;20.75;18.00;;;;;8.60;64.74;101477.78;4915240;29;11499;-75
2021/05/09 03:52:40;;;;;;;;;7.50;7.50;;;;;8.69;65.21;101483.44;4899987;29;11580;-75
2021/05/09 03:55:36;;;;;;;;;7.00;7.00;;;;;8.64;65.15;101492.59;4896625;29;11518;-76
2021/05/09 03:58:32;;;;;;;;;9.75;9.75;;;;;8.53;64.96;101489.19;4896304;29;11498;-75
2021/05/09 04:01:27;;;;;;;;;11.00;11.00;;;;;8.82;65.22;101494.56;4910004;29;12224;-75
2021/05/09 04:04:23;;;;;;;;;12.00;11.50;;;;;9.00;65.81;101490.13;4934277;29;11662;-76
2021/05/09 04:07:19;;;;;;;;;10.75;10.75;;;;;9.19;65.30;101506.63;4934227;29;11493;-78
2021/05/09 04:10:15;;;;;;;;;2.00;2.00;;;;;9.06;65.42;101504.66;4934354;29;11510;-78
2021/05/09 04:13:25;;;;;;;;;9.00;9.00;;;;;9.11;65.21;101518.34;4929477;29;11461;-78
2021/05/09 04:16:21;;;;;;;;;7.00;7.00;;;;;9.06;65.73;101507.44;4915367;29;12253;-79
2021/05/09 04:19:16;;;;;;;;;6.50;6.50;;;;;9.05;65.69;101523.16;4915125;29;12329;-78
2021/05/09 04:22:12;;;;;;;;;7.50;7.50;;;;;9.11;66.36;101521.94;4918067;29;11487;-78
2021/05/09 04:25:08;;;;;;;;;7.00;6.00;;;;;9.04;66.75;101532.53;4919032;29;11503;-79
2021/05/09 04:28:04;;;;;;;;;6.75;6.75;;;;;9.14;68.04;101531.56;4906355;29;11617;-78
2021/05/09 04:31:01;;;;;;;;;4.00;4.00;;;;;9.01;66.97;101533.16;4918785;29;11487;-78
2021/05/09 04:33:57;;;;;;;;;6.00;6.00;;;;;9.09;67.55;101534.41;4918833;29;11514;-78
2021/05/09 04:36:53;;;;;;;;;6.00;6.00;;;;;9.24;66.61;101538.84;4918845;29;11509;-78
2021/05/09 04:39:48;;;;;;;;;6.75;6.75;;;;;9.13;67.17;101536.28;4906075;29;12351;-78
2021/05/09 04:42:44;;;;;;;;;5.00;5.00;;;;;9.46;66.66;101539.84;4909149;29;11479;-78
2021/05/09 04:45:44;;;;;;;;;7.00;7.00;;;;;9.36;64.47;101545.56;4926206;29;11492;-78
2021/05/09 04:48:41;;;;;;;;;4.00;4.00;;;;;9.51;63.76;101552.75;4937620;29;11493;-78
2021/05/09 04:51:37;;;;;;;;;6.75;6.75;;;;;9.56;64.42;101552.66;4934223;29;11497;-77
2021/05/09 04:54:33;;;;;;;;;6.00;6.00;;;;;9.57;62.68;101562.56;4913588;29;11528;-78
2021/05/09 04:57:31;;;;;;;;;7.25;7.25;;;;;9.71;62.08;101559.84;4918807;29;11296;-79
2021/05/09 05:00:27;;;;;;;;;4.00;4.00;;;;;9.92;62.48;101566.66;4918292;29;11139;-78
2021/05/09 05:03:23;;;;;;;;;6.25;6.25;;;;;10.08;61.60;101572.69;4918182;29;11531;-79
2021/05/09 05:06:18;;;;;;;;;7.00;7.00;;;;;10.37;61.76;101575.19;4918337;29;11530;-74
2021/05/09 05:09:14;;;;;;;;;7.50;7.50;;;;;10.51;59.96;101578.78;4918086;29;11125;-75
2021/05/09 05:12:09;;;;;;;;;9.00;9.00;;;;;10.65;59.94;101572.38;4903934;29;11264;-75
2021/05/09 05:15:06;;;;;;;;;8.00;8.00;;;;;10.41;59.93;101576.22;4899339;29;11298;-75
2021/05/09 05:18:01;;;;;;;;;8.50;7.00;;;;;10.78;58.74;101572.38;4903014;29;11979;-75
2021/05/09 05:21:06;;;;;;;;;4.00;4.00;;;;;10.99;58.03;101569.97;4905486;29;10973;-75
2021/05/09 05:24:02;;;;;;;;;6.50;6.50;;;;;10.81;57.22;101563.47;4917772;29;10886;-75
2021/05/09 05:26:58;;;;;;;;;8.00;8.00;;;;;11.08;57.26;101572.81;4911580;29;10983;-74
2021/05/09 05:29:54;;;;;;;;;9.25;9.25;;;;;11.28;56.09;101575.09;4903940;29;10954;-76
2021/05/09 05:32:49;;;;;;;;;9.25;9.25;;;;;11.34;55.27;101592.38;4904508;29;11026;-75
2021/05/09 05:35:45;;;;;;;;;7.00;7.00;;;;;11.65;55.06;101593.28;4918662;29;11653;-75
2021/05/09 05:38:40;;;;;;;;;14.25;14.00;;;;;11.82;54.14;101591.78;4918260;29;10722;-75
2021/05/09 05:41:36;;;;;;;;;7.25;5.75;;;;;11.57;52.74;101605.09;4893965;29;10998;-75
2021/05/09 05:44:31;;;;;;;;;8.75;8.75;;;;;12.06;53.02;101597.78;4896593;29;10722;-75
2021/05/09 05:47:27;;;;;;;;;9.50;9.50;;;;;11.84;53.10;101590.31;4897812;29;10700;-75
2021/05/09 05:50:22;;;;;;;;;8.50;8.25;;;;;12.00;53.42;101593.50;4898947;29;10604;-76
2021/05/09 05:53:21;;;;;;;;;7.75;7.75;;;;;11.99;52.32;101602.97;4907520;29;10494;-74
2021/05/09 05:56:17;;;;;;;;;3.25;3.25;;;;;12.15;52.31;101611.69;4904788;29;10683;-76
2021/05/09 05:59:12;;;;;;;;;5.25;5.25;;;;;12.06;50.78;101608.06;4911744;29;10499;-75
2021/05/09 06:02:08;;;;;;;;;9.25;8.00;;;;;12.06;52.79;101608.06;4896538;29;10300;-75
2021/05/09 06:05:04;;;;;;;;;10.25;10.25;;;;;12.03;51.88;101608.66;4896402;29;10544;-75
2021/05/09 06:07:32;;;;;;;;;6.25;6.25;;;;;12.63;52.58;101613.66;4883079;29;10932;-76
2021/05/09 06:09:59;;;;;;;;;8.00;8.00;;;;;12.24;52.61;101615.31;4899214;29;10583;-75
2021/05/09 06:12:56;;;;;;;;;9.00;9.00;;;;;12.63;51.43;101614.47;4889272;29;10526;-75
2021/05/09 06:15:51;;;;;;;;;8.25;8.25;;;;;12.80;52.43;101608.13;4897523;29;10416;-74
2021/05/09 06:18:47;;;;;;;;;3.00;3.00;;;;;12.51;50.27;101617.06;4888111;29;10382;-74
2021/05/09 06:21:14;;;;;;;;;5.00;5.00;;;;;12.32;52.08;101608.97;4904610;29;10206;-75
2021/05/09 06:24:10;;;;;;;;;11.00;6.75;;;;;12.25;50.71;101608.63;4899055;29;10347;-74
2021/05/09 06:26:51;;;;;;;;;7.00;7.00;;;;;12.57;50.76;101603.81;4882940;29;11155;-74
2021/05/09 06:29:19;;;;;;;;;6.00;6.00;;;;;12.89;50.33;101597.06;4898625;29;10348;-75
2021/05/09 06:31:54;;;;;;;;;9.00;9.00;;;;;13.08;50.36;101606.69;4898858;29;10351;-75
2021/05/09 06:34:22;;;;;;;;;6.50;6.50;;;;;13.27;50.12;101602.84;4899001;29;10441;-75
2021/05/09 06:37:17;;;;;;;;;8.50;8.50;;;;;12.98;48.44;101606.22;4905567;29;10439;-75
2021/05/09 06:40:13;;;;;;;;;9.00;9.00;;;;;13.16;49.05;101604.25;4897902;29;10199;-75
2021/05/09 06:43:08;;;;;;;;;8.50;7.75;;;;;13.31;48.83;101603.81;4897428;29;10046;-75
2021/05/09 06:45:36;;;;;;;;;9.00;9.00;;;;;13.40;48.37;101615.72;4904038;29;10224;-75
2021/05/09 06:48:32;;;;;;;;;6.00;6.00;;;;;13.42;47.22;101612.63;4899772;29;10279;-74
2021/05/09 06:51:28;;;;;;;;;10.75;9.75;;;;;13.43;40.66;101622.59;4897588;29;9940;-75
2021/05/09 06:54:24;;;;;;;;;5.75;5.75;;;;;13.54;39.36;101613.59;4878916;29;10231;-77
2021/05/09 06:57:19;;;;;;;;;6.00;6.00;;;;;13.56;39.40;101621.59;4877664;29;10044;-78
2021/05/09 07:00:17;;;;;;;;;10.00;10.00;;;;;13.61;39.20;101619.47;4878243;29;10089;-78
2021/05/09 07:02:47;;;;;;;;;6.25;6.25;;;;;13.58;38.74;101619.34;4879911;29;10143;-78
2021/05/09 07:05:30;;;;;;;;;5.00;5.00;;;;;13.41;39.45;101620.13;4879534;29;10628;-76
2021/05/09 07:08:25;;;;;;;;;11.75;11.75;;;;;13.52;37.87;101615.91;4878528;29;9796;-78
2021/05/09 07:11:21;;;;;;;;;11.25;10.75;;;;;13.96;38.14;101613.03;4879225;29;10253;-77
2021/05/09 07:14:03;;;;;;;;;9.75;9.75;;;;;13.80;38.05;101612.72;4878822;29;10249;-77
2021/05/09 07:16:32;;;;;;;;;14.25;14.25;;;;;13.96;37.64;101608.28;4898266;29;10067;-78
2021/05/09 07:19:27;;;;;;;;;12.25;11.75;;;;;14.13;38.52;101602.66;4901510;29;10073;-78
2021/05/09 07:22:45;;;;;;;;;23.75;22.25;;;;;14.10;36.31;101617.22;4901699;29;9972;-78
2021/05/09 07:25:41;;;;;;;;;6.75;6.75;;;;;13.74;34.99;101625.19;4896958;29;10463;-77
2021/05/09 07:28:37;;;;;;;;;6.50;6.50;;;;;13.72;36.90;101608.00;4896709;29;9973;-78
2021/05/09 07:31:33;;;;;;;;;6.00;6.00;;;;;14.27;37.15;101623.91;4896926;29;9894;-77
2021/05/09 07:34:29;;;;;;;;;10.25;5.25;;;;;14.19;35.46;101614.44;4898339;29;9781;-78
2021/05/09 07:37:24;;;;;;;;;7.25;6.75;;;;;14.17;35.76;101619.50;4896750;29;9828;-77
2021/05/09 07:40:23;;;;;;;;;13.00;12.25;;;;;14.39;36.00;101629.56;4884342;29;9730;-78
2021/05/09 07:43:19;;;;;;;;;19.25;18.00;;;;;14.22;33.49;101632.44;4896813;29;9828;-78
2021/05/09 07:46:14;;;;;;;;;13.75;13.25;;;;;14.52;33.78;101644.44;4896516;29;10128;-78
2021/05/09 07:49:10;;;;;;;;;11.75;11.75;;;;;14.55;32.87;101639.00;4897645;29;10030;-77
2021/05/09 07:52:06;;;;;;;;;8.50;8.25;;;;;14.42;33.67;101638.09;4885453;29;9748;-78
2021/05/09 07:55:02;;;;;;;;;5.00;5.00;;;;;14.78;33.38;101652.66;4884346;29;9909;-77
2021/05/09 07:57:58;;;;;;;;;2.00;2.00;;;;;14.59;32.76;101640.00;4896648;29;10180;-77
2021/05/09 08:00:54;;;;;;;;;1.33;1.33;;;;;14.23;32.25;101654.34;4884059;29;9341;-77
2021/05/09 08:03:49;;;;;;;;;5.00;5.00;;;;;14.48;32.58;101655.41;4896458;29;9415;-78
2021/05/09 08:06:45;;;;;;;;;5.00;5.00;;;;;14.84;34.67;101660.50;4896528;29;9488;-77
2021/05/09 08:09:31;;;;;;;;;6.00;6.00;;;;;14.90;32.10;101661.94;4897230;29;9509;-77
2021/05/09 08:12:26;;;;;;;;;4.00;4.00;;;;;14.73;32.60;101662.84;4896744;29;9259;-77
2021/05/09 08:15:22;;;;;;;;;5.00;5.00;;;;;15.02;33.31;101658.41;4896348;29;9417;-77
2021/05/09 08:17:53;;;;;;;;;5.67;5.67;;;;;14.81;33.38;101669.53;4897748;29;9422;-77
2021/05/09 08:20:24;;;;;;;;;3.00;3.00;;;;;14.79;32.15;101671.81;4886525;29;9355;-77
2021/05/09 08:23:20;;;;;;;;;6.25;6.25;;;;;14.94;34.17;101664.84;4885506;29;9248;-77
2021/05/09 08:26:16;;;;;;;;;7.75;7.75;;;;;15.23;34.55;101662.03;4896292;29;10244;-78
2021/05/09 08:29:07;;;;;;;;;12.00;11.00;;;;;15.23;34.12;101652.88;4897369;29;9668;-77
2021/05/09 08:32:03;;;;;;;;;2.00;2.00;;;;;15.41;33.44;101668.31;4896463;29;9334;-78
2021/05/09 08:35:00;;;;;;;;;4.33;4.33;;;;;15.23;33.59;101672.38;4896370;29;9436;-77
2021/05/09 08:37:56;;;;;;;;;3.00;3.00;;;;;15.01;34.46;101682.66;4883707;29;9206;-78
2021/05/09 08:40:51;;;;;;;;;3.00;3.00;;;;;15.20;34.02;101673.88;4896402;29;9213;-78
2021/05/09 08:43:33;;;;;;;;;5.67;5.67;;;;;15.67;34.54;101676.47;4896784;29;9262;-78
2021/05/09 08:46:29;;;;;;;;;1.33;1.33;;;;;16.11;33.57;101671.31;4896293;29;9322;-78
2021/05/09 08:49:28;;;;;;;;;6.00;5.33;;;;;15.84;33.58;101670.75;4896033;29;9024;-78
2021/05/09 08:52:24;;;;;;;;;6.67;6.67;;;;;16.10;33.13;101675.22;4902705;29;9286;-78
2021/05/09 08:55:24;;;;;;;;;9.67;8.33;;;;;15.55;33.04;101674.41;4896242;29;9158;-77
2021/05/09 08:58:09;;;;;;;;;7.00;7.00;;;;;15.81;32.82;101687.34;4897230;29;9123;-78
2021/05/09 09:01:04;;;;;;;;;5.33;5.33;;;;;16.16;33.61;101687.00;4877677;29;9124;-78
2021/05/09 09:04:00;;;;;;;;;13.33;13.33;;;;;16.53;33.44;101699.88;4878614;29;9042;-78
2021/05/09 09:06:55;;;;;;;;;13.00;13.00;;;;;16.68;31.75;101698.38;4877461;29;9190;-77
2021/05/09 09:09:52;;;;;;;;;9.00;9.00;;;;;16.25;32.50;101696.91;4891836;29;9351;-78
2021/05/09 09:12:47;;;;;;;;;7.50;7.50;;;;;16.99;32.62;101691.44;4886942;29;8988;-79
2021/05/09 09:15:23;;;;;;;;;10.00;9.25;;;;;17.15;32.42;101697.94;4900081;29;8865;-78
2021/05/09 09:17:50;;;;;;;;;12.25;10.50;;;;;17.28;31.20;101702.34;4900472;29;8899;-78
2021/05/09 09:20:36;;;;;;;;;5.50;5.50;;;;;17.36;32.65;101690.22;4900252;29;8976;-78
2021/05/09 09:23:46;;;;;;;;;4.00;3.00;;;;;17.39;31.11;101706.28;4895789;29;8933;-79
2021/05/09 09:26:52;;;;;;;;;8.00;7.25;;;;;16.99;30.39;101716.59;4881228;29;8855;-78
2021/05/09 09:29:58;;;;;;;;;6.50;5.25;;;;;16.76;31.32;101705.84;4868752;29;8871;-78
2021/05/09 09:33:15;;;;;;;;;8.67;8.67;;;;;16.95;31.29;101705.31;4880582;29;8949;-79
2021/05/09 09:36:19;;;;;;;;;8.00;8.00;;;;;17.11;31.25;101703.41;4867925;29;9645;-78
2021/05/09 09:39:15;;;;;;;;;6.00;6.00;;;;;17.05;31.32;101702.03;4880408;29;9016;-78
2021/05/09 09:42:10;;;;;;;;;3.25;3.25;;;;;17.68;31.33;101696.75;4880313;29;8852;-79
2021/05/09 09:45:15;;;;;;;;;4.00;4.00;;;;;18.31;31.61;101716.56;4892027;29;8968;-78
2021/05/09 09:48:10;;;;;;;;;2.00;2.00;;;;;17.19;31.19;101712.84;4898800;29;8893;-78
2021/05/09 09:51:08;;;;;;;;;2.00;2.00;;;;;17.63;31.72;101710.19;4886076;29;8877;-78
2021/05/09 09:54:03;;;;;;;;;3.00;3.00;;;;;17.28;30.83;101727.50;4904008;29;8859;-78
2021/05/09 09:57:00;;;;;;;;;3.25;3.25;;;;;17.36;31.84;101717.38;4898854;29;8876;-79
2021/05/09 10:00:13;;;;;;;;;5.25;5.25;;;;;17.49;31.49;101728.19;4898754;29;8849;-78
2021/05/09 10:02:45;;;;;;;;;4.00;4.00;;;;;17.21;30.25;101716.91;4899700;29;8858;-78
2021/05/09 10:05:40;;;;;;;;;5.75;5.75;;;;;17.62;30.72;101728.13;4898390;29;9651;-78
2021/05/09 10:08:36;;;;;;;;;1.00;1.00;;;;;17.94;30.02;101720.69;4897974;29;8960;-77
2021/05/09 10:11:33;;;;;;;;;1.75;1.75;;;;;18.43;29.62;101726.06;4898444;29;8892;-78
2021/05/09 10:14:08;;;;;;;;;5.50;5.50;;;;;17.15;31.76;101718.31;4899336;29;8861;-74
2021/05/09 10:17:04;;;;;;;;;7.50;7.50;;;;;17.36;31.34;101714.56;4898056;29;8868;-73
2021/05/09 10:19:43;;;;;;;;;3.25;3.25;;;;;17.14;30.11;101727.88;4903209;29;8858;-73
2021/05/09 10:22:38;;;;;;;;;3.50;3.50;;;;;17.65;30.94;101736.66;4898063;29;8885;-74
2021/05/09 10:25:54;;;;;;;;;1.00;1.00;;;;;17.52;30.51;101724.66;4898711;29;9572;-73
2021/05/09 10:28:50;;;;;;;;;1.00;1.00;;;;;18.55;29.73;101738.00;4897184;29;9088;-74
2021/05/09 10:31:46;;;;;;;;;2.00;2.00;;;;;19.41;30.24;101742.97;4894734;29;8850;-73
2021/05/09 10:34:54;;;;;;;;;1.00;1.00;;;;;19.33;28.74;101753.19;4898119;29;9611;-74
2021/05/09 10:37:50;;;;;;;;;2.00;2.00;;;;;18.84;29.30;101747.19;4883866;29;8846;-74
2021/05/09 10:40:46;;;;;;;;;2.75;2.75;;;;;19.21;29.74;101753.31;4895097;29;8883;-74
2021/05/09 10:43:41;;;;;;;;;3.50;3.50;;;;;19.12;30.52;101753.50;4888135;29;8859;-74
2021/05/09 10:47:00;;;;;;;;;1.75;1.75;;;;;19.20;28.85;101759.28;4889619;29;8993;-74
2021/05/09 10:50:14;;;;;;;;;1.75;1.75;;;;;18.68;27.25;101757.56;4894033;29;8861;-73
2021/05/09 10:53:35;;;;;;;;;12.50;11.50;;;;;19.38;30.14;101749.28;4892000;29;8877;-74
2021/05/09 10:56:32;;;;;;;;;1.00;1.00;;;;;18.38;27.65;101749.53;4897518;29;8887;-74
2021/05/09 10:59:57;;;;;;;;;6.25;6.25;;;;;18.00;30.40;101745.28;4884162;29;8935;-73
2021/05/09 11:02:29;;;;;;;;;8.25;8.25;;;;;18.29;29.20;101760.09;4913719;29;8857;-74
2021/05/09 11:05:17;;;;;;;;;8.75;8.75;;;;;18.70;30.27;101753.22;4887226;29;8889;-74
2021/05/09 11:08:12;;;;;;;;;9.75;8.50;;;;;18.93;28.34;101763.81;4901606;29;8841;-74
2021/05/09 11:11:30;;;;;;;;;6.00;6.00;;;;;17.95;29.19;101753.97;4884885;29;8849;-75
2021/05/09 11:14:40;;;;;;;;;5.50;5.50;;;;;18.37;28.75;101763.91;4904599;29;8863;-74
2021/05/09 11:17:37;;;;;;;;;10.75;10.75;;;;;18.39;29.09;101750.34;4905402;29;9056;-74
2021/05/09 11:20:33;;;;;;;;;4.50;4.50;;;;;19.09;28.73;101759.00;4906923;29;8857;-74
2021/05/09 11:23:38;;;;;;;;;9.50;9.50;;;;;18.99;29.00;101765.16;4917662;29;8884;-74
2021/05/09 11:26:41;;;;;;;;;9.25;9.25;;;;;18.96;26.84;101766.72;4906862;29;8903;-74
2021/05/09 11:29:39;;;;;;;;;1.75;1.75;;;;;18.31;27.78;101763.34;4917111;29;8996;-74
2021/05/09 11:32:35;;;;;;;;;4.00;3.00;;;;;19.00;27.54;101762.00;4932114;29;8865;-74
2021/05/09 11:35:17;;;;;;;;;33.00;31.00;;;;;18.88;29.96;101762.91;4916843;29;9266;-74
2021/05/09 11:38:13;;;;;;;;;6.75;6.75;;;;;19.35;26.71;101770.47;4915959;29;8849;-74
2021/05/09 11:41:00;;;;;;;;;22.50;20.00;;;;;19.15;27.53;101769.59;4913616;29;9528;-75
2021/05/09 11:44:03;;;;;;;;;4.75;4.75;;;;;18.81;27.94;101771.16;4914358;29;8989;-74
2021/05/09 11:46:47;;;;;;;;;9.00;9.00;;;;;18.11;29.06;101770.81;4906735;29;8937;-74
2021/05/09 11:49:21;;;;;;;;;18.50;18.50;;;;;17.85;29.75;101784.41;4906938;29;8877;-74
2021/05/09 11:52:40;;;;;;;;;12.25;12.25;;;;;17.20;30.18;101790.75;4907990;29;9015;-74
2021/05/09 11:55:15;;;;;;;;;12.25;12.25;;;;;17.37;29.84;101786.09;4897602;29;8914;-74
2021/05/09 11:58:11;;;;;;;;;8.25;8.25;;;;;17.45;31.35;101783.16;4897451;29;8852;-74
2021/05/09 12:01:06;;;;;;;;;6.75;5.00;;;;;17.36;28.70;101785.28;4897466;29;8859;-74
2021/05/09 12:04:14;;;;;;;;;8.00;7.67;;;;;17.45;28.94;101780.38;4897385;29;8852;-74
2021/05/09 12:07:14;;;;;;;;;5.75;5.75;;;;;16.70;29.20;101796.63;4901318;29;9119;-74
2021/05/09 12:10:16;;;;;;;;;7.00;7.00;;;;;16.76;29.88;101795.25;4916249;29;8864;-74
2021/05/09 12:13:12;;;;;;;;;8.33;7.67;;;;;17.11;29.41;101801.25;4916258;29;8861;-74
2021/05/09 12:15:43;;;;;;;;;6.00;6.00;;;;;17.23;29.34;101797.63;4916543;29;9018;-74
2021/05/09 12:18:39;;;;;;;;;3.00;3.00;;;;;18.06;29.00;101790.63;4914399;29;8884;-74
2021/05/09 12:21:35;;;;;;;;;3.25;3.25;;;;;18.92;26.63;101781.81;4915979;29;8971;-74
2021/05/09 12:24:57;;;;;;;;;2.25;2.25;;;;;19.52;26.13;101797.31;4912832;29;9649;-74
2021/05/09 12:27:45;;;;;;;;;4.75;4.75;;;;;19.52;25.50;101800.13;4896577;29;8892;-74
2021/05/09 12:30:16;;;;;;;;;2.25;2.25;;;;;19.08;25.13;101789.03;4904547;29;8847;-74
2021/05/09 12:32:44;;;;;;;;;2.50;2.50;;;;;19.38;25.93;101791.34;4932872;29;9641;-74
2021/05/09 12:35:18;;;;;;;;;9.25;9.25;;;;;19.38;27.16;101794.97;4929830;29;8913;-74
2021/05/09 12:38:25;;;;;;;;;17.50;17.50;;;;;17.96;28.32;101799.56;4909541;29;8926;-75
2021/05/09 12:41:21;;;;;;;;;21.00;19.50;;;;;17.80;28.38;101805.06;4922913;29;8863;-74
2021/05/09 12:44:22;;;;;;;;;31.25;28.75;;;;;18.15;29.03;101812.88;4937729;29;8916;-75
2021/05/09 12:47:21;;;;;;;;;17.67;17.67;;;;;18.01;28.01;101811.28;4938899;29;9973;-73
2021/05/09 12:50:16;;;;;;;;;11.00;10.00;;;;;17.22;28.81;101818.38;4937574;29;9269;-75
2021/05/09 12:53:02;;;;;;;;;10.75;10.75;;;;;17.16;29.11;101820.56;4938846;29;8876;-72
2021/05/09 12:56:27;;;;;;;;;7.75;7.75;;;;;16.86;29.38;101819.13;4920362;29;8851;-74
2021/05/09 12:59:17;;;;;;;;;14.67;14.00;;;;;16.77;29.74;101826.78;4919108;29;8871;-75
2021/05/09 13:01:58;;;;;;;;;16.33;16.33;;;;;17.02;30.29;101827.66;4926278;29;8947;-75
2021/05/09 13:04:30;;;;;;;;;4.33;4.33;;;;;16.73;29.44;101835.06;4938531;29;9515;-75
2021/05/09 13:07:17;;;;;;;;;10.67;10.67;;;;;16.58;30.24;101835.69;4938231;29;9001;-75
2021/05/09 13:10:12;;;;;;;;;10.00;10.00;;;;;16.39;29.44;101831.41;4917888;29;9037;-74
2021/05/09 13:13:08;;;;;;;;;14.00;14.00;;;;;16.61;30.43;101832.19;4918359;29;8989;-75
2021/05/09 13:15:39;;;;;;;;;20.67;20.33;;;;;17.26;30.17;101824.91;4919170;29;9438;-75
2021/05/09 13:18:34;;;;;;;;;17.00;17.00;;;;;16.94;30.78;101830.22;4918020;29;9500;-72
2021/05/09 13:21:16;;;;;;;;;14.75;14.75;;;;;17.46;30.12;101835.13;4918781;29;9914;-75
2021/05/09 13:24:14;;;;;;;;;4.75;4.00;;;;;18.19;28.35;101827.81;4910405;29;8839;-74
2021/05/09 13:27:09;;;;;;;;;2.50;2.50;;;;;18.22;28.34;101824.28;4917581;29;8878;-74
2021/05/09 13:29:38;;;;;;;;;8.25;8.25;;;;;17.53;29.41;101831.75;4919929;29;9640;-72
2021/05/09 13:32:08;;;;;;;;;12.75;11.75;;;;;17.43;29.73;101844.25;4919148;29;8934;-74